Aviation Digital Data Service (ADDS)

Output produced by TAFs form (1213 UTC 24 February 2018)
found at http://aviationweather.gov/adds/tafs/
 
METAR text: ZYTX 241200Z VRB01MPS 8000 NSC M06/M25 Q1031 NOSIG
Conditions at: ZYTX (SHENYANG/TAOKIAN, CN) observed 1200 UTC 24 February 2018
Temperature: -6.0°C (21°F)
Dewpoint: -25.0°C (-13°F) [RH = 21%]
Pressure (altimeter): 30.44 inches Hg (1031.0 mb)
Winds: variable direction winds at 2 MPH (2 knots; 1.0 m/s)
Visibility: 5 miles (8 km)
Ceiling: at least 12,000 feet AGL
Clouds: sky clear below 12,000 feet AGL
Weather: no significant weather observed at this time

Forecast for: ZYTX (SHENYANG/TAOKIAN, CN)
Text: TAF ZYTX 240912Z 2412/2512 29004MPS CAVOK TX03/2506Z TNM14/21Z
Forecast period: 1200 to 1600 UTC 24 February 2018
Forecast type: FROM: standard forecast or significant change
Winds: from the WNW (290 degrees) at 9 MPH (8 knots; 4.2 m/s)
Visibility: 6 or more miles (10+ km)
Clouds: not forecast
Temperature: minimum -14.0°C (7°F) expected at 2100 UTC
Weather: no significant weather forecast for this period
Text: BECMG 2416/2417 16004MPS
Forecast period: 1600 UTC 24 February 2018 to 1200 UTC 25 February 2018
Forecast type: BECOMING: Conditions expected to become as follows by 1700 UTC 24 February 2018
Winds: from the SSE (160 degrees) at 9 MPH (8 knots; 4.2 m/s)
Visibility: 6 or more miles (10+ km)
Weather: no significant weather forecast for this period